sensor_id;sensor_type;location;lat;lon;timestamp;P1;durP1;ratioP1;P2;durP2;ratioP2
4057;SDS011;2044;48.692;9.020;2023-02-28T00:00:08;6.30;;;6.10;;
4057;SDS011;2044;48.692;9.020;2023-02-28T00:02:36;6.47;;;6.17;;
4057;SDS011;2044;48.692;9.020;2023-02-28T00:05:03;6.37;;;6.07;;
4057;SDS011;2044;48.692;9.020;2023-02-28T00:07:32;6.30;;;5.97;;
4057;SDS011;2044;48.692;9.020;2023-02-28T00:09:59;6.73;;;6.20;;
4057;SDS011;2044;48.692;9.020;2023-02-28T00:12:26;5.53;;;5.33;;
4057;SDS011;2044;48.692;9.020;2023-02-28T00:14:53;6.10;;;5.70;;
4057;SDS011;2044;48.692;9.020;2023-02-28T00:17:19;6.97;;;6.53;;
4057;SDS011;2044;48.692;9.020;2023-02-28T00:19:47;6.53;;;6.23;;
4057;SDS011;2044;48.692;9.020;2023-02-28T00:22:14;6.07;;;5.70;;
4057;SDS011;2044;48.692;9.020;2023-02-28T00:24:42;5.53;;;5.23;;
4057;SDS011;2044;48.692;9.020;2023-02-28T00:27:09;6.67;;;6.00;;
4057;SDS011;2044;48.692;9.020;2023-02-28T00:29:36;5.53;;;5.03;;
4057;SDS011;2044;48.692;9.020;2023-02-28T00:32:04;4.27;;;4.07;;
4057;SDS011;2044;48.692;9.020;2023-02-28T00:34:31;5.33;;;4.93;;
4057;SDS011;2044;48.692;9.020;2023-02-28T00:37:03;4.83;;;4.60;;
4057;SDS011;2044;48.692;9.020;2023-02-28T00:39:32;4.73;;;4.33;;
4057;SDS011;2044;48.692;9.020;2023-02-28T00:42:02;4.37;;;4.17;;
4057;SDS011;2044;48.692;9.020;2023-02-28T00:44:30;5.10;;;4.67;;
4057;SDS011;2044;48.692;9.020;2023-02-28T00:46:57;3.97;;;3.77;;
4057;SDS011;2044;48.692;9.020;2023-02-28T00:49:25;5.17;;;4.87;;
4057;SDS011;2044;48.692;9.020;2023-02-28T00:51:52;3.93;;;3.73;;
4057;SDS011;2044;48.692;9.020;2023-02-28T00:54:20;4.20;;;3.80;;
4057;SDS011;2044;48.692;9.020;2023-02-28T00:56:47;4.07;;;3.87;;
4057;SDS011;2044;48.692;9.020;2023-02-28T00:59:16;5.77;;;5.10;;
4057;SDS011;2044;48.692;9.020;2023-02-28T01:01:43;3.07;;;2.97;;
4057;SDS011;2044;48.692;9.020;2023-02-28T01:04:11;3.10;;;3.00;;
4057;SDS011;2044;48.692;9.020;2023-02-28T01:06:38;3.03;;;2.90;;
4057;SDS011;2044;48.692;9.020;2023-02-28T01:09:06;3.47;;;3.27;;
4057;SDS011;2044;48.692;9.020;2023-02-28T01:11:33;3.07;;;2.87;;
4057;SDS011;2044;48.692;9.020;2023-02-28T01:14:00;3.80;;;3.60;;
4057;SDS011;2044;48.692;9.020;2023-02-28T01:16:29;3.83;;;3.53;;
4057;SDS011;2044;48.692;9.020;2023-02-28T01:18:56;3.50;;;3.33;;
4057;SDS011;2044;48.692;9.020;2023-02-28T01:21:23;6.60;;;3.70;;
4057;SDS011;2044;48.692;9.020;2023-02-28T01:23:50;4.47;;;4.13;;
4057;SDS011;2044;48.692;9.020;2023-02-28T01:26:18;4.47;;;4.27;;
4057;SDS011;2044;48.692;9.020;2023-02-28T01:28:46;4.10;;;3.70;;
4057;SDS011;2044;48.692;9.020;2023-02-28T01:31:13;3.43;;;3.23;;
4057;SDS011;2044;48.692;9.020;2023-02-28T01:33:42;3.57;;;3.37;;
4057;SDS011;2044;48.692;9.020;2023-02-28T01:36:09;3.80;;;3.60;;
4057;SDS011;2044;48.692;9.020;2023-02-28T01:38:38;3.80;;;3.37;;
4057;SDS011;2044;48.692;9.020;2023-02-28T01:41:05;2.77;;;2.60;;
4057;SDS011;2044;48.692;9.020;2023-02-28T01:43:52;3.57;;;3.27;;
4057;SDS011;2044;48.692;9.020;2023-02-28T01:46:21;2.10;;;2.03;;
4057;SDS011;2044;48.692;9.020;2023-02-28T01:48:50;4.70;;;2.23;;
4057;SDS011;2044;48.692;9.020;2023-02-28T01:51:20;8.63;;;2.17;;
4057;SDS011;2044;48.692;9.020;2023-02-28T01:53:52;3.33;;;2.80;;
4057;SDS011;2044;48.692;9.020;2023-02-28T01:56:22;3.50;;;3.20;;
4057;SDS011;2044;48.692;9.020;2023-02-28T01:58:52;2.70;;;2.57;;
4057;SDS011;2044;48.692;9.020;2023-02-28T02:01:20;1.93;;;1.83;;
4057;SDS011;2044;48.692;9.020;2023-02-28T02:03:50;3.00;;;2.80;;
4057;SDS011;2044;48.692;9.020;2023-02-28T02:06:20;3.83;;;2.40;;
4057;SDS011;2044;48.692;9.020;2023-02-28T02:08:47;8.40;;;3.30;;
4057;SDS011;2044;48.692;9.020;2023-02-28T02:11:14;3.77;;;3.10;;
4057;SDS011;2044;48.692;9.020;2023-02-28T02:16:41;4.07;;;2.57;;
4057;SDS011;2044;48.692;9.020;2023-02-28T02:19:28;2.73;;;2.53;;
4057;SDS011;2044;48.692;9.020;2023-02-28T02:22:21;3.57;;;2.60;;
4057;SDS011;2044;48.692;9.020;2023-02-28T02:25:19;3.10;;;2.70;;
4057;SDS011;2044;48.692;9.020;2023-02-28T02:31:31;3.40;;;3.10;;
4057;SDS011;2044;48.692;9.020;2023-02-28T02:34:22;13.07;;;3.33;;
4057;SDS011;2044;48.692;9.020;2023-02-28T02:36:57;2.50;;;2.20;;
4057;SDS011;2044;48.692;9.020;2023-02-28T02:39:36;2.97;;;2.10;;
4057;SDS011;2044;48.692;9.020;2023-02-28T02:42:11;5.03;;;3.47;;
4057;SDS011;2044;48.692;9.020;2023-02-28T02:44:45;6.43;;;4.27;;
4057;SDS011;2044;48.692;9.020;2023-02-28T02:47:15;3.87;;;3.60;;
4057;SDS011;2044;48.692;9.020;2023-02-28T02:49:46;4.03;;;2.97;;
4057;SDS011;2044;48.692;9.020;2023-02-28T02:52:15;3.87;;;3.43;;
4057;SDS011;2044;48.692;9.020;2023-02-28T02:54:57;3.50;;;3.20;;
4057;SDS011;2044;48.692;9.020;2023-02-28T02:57:27;3.43;;;2.50;;
4057;SDS011;2044;48.692;9.020;2023-02-28T02:59:57;3.57;;;2.70;;
4057;SDS011;2044;48.692;9.020;2023-02-28T03:02:24;4.03;;;3.63;;
4057;SDS011;2044;48.692;9.020;2023-02-28T03:05:00;2.63;;;2.40;;
4057;SDS011;2044;48.692;9.020;2023-02-28T03:07:30;2.30;;;2.10;;
4057;SDS011;2044;48.692;9.020;2023-02-28T03:09:57;2.27;;;2.07;;
4057;SDS011;2044;48.692;9.020;2023-02-28T03:12:26;4.17;;;3.60;;
4057;SDS011;2044;48.692;9.020;2023-02-28T03:15:01;2.93;;;2.73;;
4057;SDS011;2044;48.692;9.020;2023-02-28T03:17:46;2.37;;;2.17;;
4057;SDS011;2044;48.692;9.020;2023-02-28T03:20:27;2.50;;;2.30;;
4057;SDS011;2044;48.692;9.020;2023-02-28T03:23:03;1.60;;;1.57;;
4057;SDS011;2044;48.692;9.020;2023-02-28T03:25:41;3.43;;;3.13;;
4057;SDS011;2044;48.692;9.020;2023-02-28T03:28:18;2.53;;;2.33;;
4057;SDS011;2044;48.692;9.020;2023-02-28T03:30:52;3.60;;;3.03;;
4057;SDS011;2044;48.692;9.020;2023-02-28T03:33:24;2.90;;;2.70;;
4057;SDS011;2044;48.692;9.020;2023-02-28T03:35:56;6.20;;;3.20;;
4057;SDS011;2044;48.692;9.020;2023-02-28T03:38:28;2.83;;;2.50;;
4057;SDS011;2044;48.692;9.020;2023-02-28T03:41:01;3.20;;;2.90;;
4057;SDS011;2044;48.692;9.020;2023-02-28T03:43:32;6.73;;;6.03;;
4057;SDS011;2044;48.692;9.020;2023-02-28T03:46:05;3.80;;;3.50;;
4057;SDS011;2044;48.692;9.020;2023-02-28T03:48:37;6.90;;;4.20;;
4057;SDS011;2044;48.692;9.020;2023-02-28T03:51:08;3.10;;;2.50;;
4057;SDS011;2044;48.692;9.020;2023-02-28T03:53:38;6.30;;;3.47;;
4057;SDS011;2044;48.692;9.020;2023-02-28T03:56:09;3.80;;;2.73;;
4057;SDS011;2044;48.692;9.020;2023-02-28T03:58:42;3.53;;;2.77;;
4057;SDS011;2044;48.692;9.020;2023-02-28T04:01:15;4.20;;;3.80;;
4057;SDS011;2044;48.692;9.020;2023-02-28T04:03:45;6.20;;;3.77;;
4057;SDS011;2044;48.692;9.020;2023-02-28T04:06:14;5.80;;;2.97;;
4057;SDS011;2044;48.692;9.020;2023-02-28T04:08:43;6.77;;;4.00;;
4057;SDS011;2044;48.692;9.020;2023-02-28T04:11:12;5.80;;;5.23;;
4057;SDS011;2044;48.692;9.020;2023-02-28T04:13:45;3.00;;;2.70;;
4057;SDS011;2044;48.692;9.020;2023-02-28T04:16:13;3.20;;;2.43;;
4057;SDS011;2044;48.692;9.020;2023-02-28T04:18:40;4.17;;;3.67;;
4057;SDS011;2044;48.692;9.020;2023-02-28T04:21:08;4.10;;;3.40;;
4057;SDS011;2044;48.692;9.020;2023-02-28T04:23:37;5.97;;;4.60;;
4057;SDS011;2044;48.692;9.020;2023-02-28T04:26:03;8.00;;;4.80;;
4057;SDS011;2044;48.692;9.020;2023-02-28T04:28:31;6.40;;;4.43;;
4057;SDS011;2044;48.692;9.020;2023-02-28T04:30:59;3.10;;;2.53;;
4057;SDS011;2044;48.692;9.020;2023-02-28T04:33:28;7.33;;;5.50;;
4057;SDS011;2044;48.692;9.020;2023-02-28T04:35:58;10.77;;;8.50;;
4057;SDS011;2044;48.692;9.020;2023-02-28T04:38:27;4.07;;;3.67;;
4057;SDS011;2044;48.692;9.020;2023-02-28T04:40:57;5.27;;;4.20;;
4057;SDS011;2044;48.692;9.020;2023-02-28T04:43:25;3.00;;;2.70;;
4057;SDS011;2044;48.692;9.020;2023-02-28T04:45:52;4.33;;;3.70;;
4057;SDS011;2044;48.692;9.020;2023-02-28T04:48:21;4.40;;;2.70;;
4057;SDS011;2044;48.692;9.020;2023-02-28T04:50:48;5.13;;;3.53;;
4057;SDS011;2044;48.692;9.020;2023-02-28T04:53:15;4.20;;;3.33;;
4057;SDS011;2044;48.692;9.020;2023-02-28T04:55:42;4.17;;;3.40;;
4057;SDS011;2044;48.692;9.020;2023-02-28T04:58:10;8.77;;;4.67;;
4057;SDS011;2044;48.692;9.020;2023-02-28T05:00:37;6.30;;;5.27;;
4057;SDS011;2044;48.692;9.020;2023-02-28T05:03:03;8.53;;;6.53;;
4057;SDS011;2044;48.692;9.020;2023-02-28T05:05:30;6.27;;;4.43;;
4057;SDS011;2044;48.692;9.020;2023-02-28T05:07:57;9.27;;;5.10;;
4057;SDS011;2044;48.692;9.020;2023-02-28T05:10:24;7.53;;;5.33;;
4057;SDS011;2044;48.692;9.020;2023-02-28T05:12:51;7.50;;;5.03;;
4057;SDS011;2044;48.692;9.020;2023-02-28T05:15:19;7.00;;;5.20;;
4057;SDS011;2044;48.692;9.020;2023-02-28T05:17:45;7.30;;;4.60;;
4057;SDS011;2044;48.692;9.020;2023-02-28T05:20:12;3.70;;;2.60;;
4057;SDS011;2044;48.692;9.020;2023-02-28T05:22:39;8.90;;;6.20;;
4057;SDS011;2044;48.692;9.020;2023-02-28T05:25:06;5.07;;;3.90;;
4057;SDS011;2044;48.692;9.020;2023-02-28T05:27:37;8.07;;;3.77;;
4057;SDS011;2044;48.692;9.020;2023-02-28T05:30:04;6.07;;;3.73;;
4057;SDS011;2044;48.692;9.020;2023-02-28T05:32:33;8.83;;;4.93;;
4057;SDS011;2044;48.692;9.020;2023-02-28T05:35:00;5.47;;;4.20;;
4057;SDS011;2044;48.692;9.020;2023-02-28T05:37:27;5.20;;;3.90;;
4057;SDS011;2044;48.692;9.020;2023-02-28T05:39:53;6.97;;;5.77;;
4057;SDS011;2044;48.692;9.020;2023-02-28T05:42:20;4.30;;;3.70;;
4057;SDS011;2044;48.692;9.020;2023-02-28T05:44:47;8.00;;;4.87;;
4057;SDS011;2044;48.692;9.020;2023-02-28T05:47:14;8.60;;;5.00;;
4057;SDS011;2044;48.692;9.020;2023-02-28T05:49:43;7.87;;;7.07;;
4057;SDS011;2044;48.692;9.020;2023-02-28T05:52:09;5.80;;;3.10;;
4057;SDS011;2044;48.692;9.020;2023-02-28T05:54:36;9.93;;;5.80;;
4057;SDS011;2044;48.692;9.020;2023-02-28T05:57:03;6.30;;;5.00;;
4057;SDS011;2044;48.692;9.020;2023-02-28T05:59:29;5.30;;;4.20;;
4057;SDS011;2044;48.692;9.020;2023-02-28T06:01:56;5.60;;;4.20;;
4057;SDS011;2044;48.692;9.020;2023-02-28T06:04:23;6.97;;;3.80;;
4057;SDS011;2044;48.692;9.020;2023-02-28T06:06:51;5.23;;;3.50;;
4057;SDS011;2044;48.692;9.020;2023-02-28T06:09:18;8.07;;;4.93;;
4057;SDS011;2044;48.692;9.020;2023-02-28T06:11:45;5.63;;;4.43;;
4057;SDS011;2044;48.692;9.020;2023-02-28T06:14:13;12.10;;;4.60;;
4057;SDS011;2044;48.692;9.020;2023-02-28T06:16:41;5.43;;;3.40;;
4057;SDS011;2044;48.692;9.020;2023-02-28T06:19:09;7.20;;;4.90;;
4057;SDS011;2044;48.692;9.020;2023-02-28T06:21:36;8.33;;;4.90;;
4057;SDS011;2044;48.692;9.020;2023-02-28T06:24:04;11.67;;;6.10;;
4057;SDS011;2044;48.692;9.020;2023-02-28T06:26:31;5.40;;;3.70;;
4057;SDS011;2044;48.692;9.020;2023-02-28T06:28:58;12.90;;;6.93;;
4057;SDS011;2044;48.692;9.020;2023-02-28T06:31:26;4.70;;;3.37;;
4057;SDS011;2044;48.692;9.020;2023-02-28T06:33:54;7.77;;;4.00;;
4057;SDS011;2044;48.692;9.020;2023-02-28T06:36:21;7.10;;;5.60;;
4057;SDS011;2044;48.692;9.020;2023-02-28T06:38:48;10.33;;;6.43;;
4057;SDS011;2044;48.692;9.020;2023-02-28T06:41:20;8.13;;;4.57;;
4057;SDS011;2044;48.692;9.020;2023-02-28T06:43:48;8.53;;;5.40;;
4057;SDS011;2044;48.692;9.020;2023-02-28T06:46:14;8.73;;;5.63;;
4057;SDS011;2044;48.692;9.020;2023-02-28T06:48:42;7.40;;;5.03;;
4057;SDS011;2044;48.692;9.020;2023-02-28T06:51:09;7.67;;;5.07;;
4057;SDS011;2044;48.692;9.020;2023-02-28T06:53:39;11.80;;;6.10;;
4057;SDS011;2044;48.692;9.020;2023-02-28T06:56:06;11.47;;;6.20;;
4057;SDS011;2044;48.692;9.020;2023-02-28T06:58:35;12.90;;;8.10;;
4057;SDS011;2044;48.692;9.020;2023-02-28T07:01:02;10.37;;;5.70;;
4057;SDS011;2044;48.692;9.020;2023-02-28T07:03:30;11.07;;;5.80;;
4057;SDS011;2044;48.692;9.020;2023-02-28T07:05:56;8.13;;;4.70;;
4057;SDS011;2044;48.692;9.020;2023-02-28T07:08:24;9.80;;;4.43;;
4057;SDS011;2044;48.692;9.020;2023-02-28T07:10:52;8.20;;;5.30;;
4057;SDS011;2044;48.692;9.020;2023-02-28T07:13:19;11.57;;;7.40;;
4057;SDS011;2044;48.692;9.020;2023-02-28T07:15:53;7.13;;;5.30;;
4057;SDS011;2044;48.692;9.020;2023-02-28T07:18:21;6.90;;;4.20;;
4057;SDS011;2044;48.692;9.020;2023-02-28T07:20:48;9.90;;;7.60;;
4057;SDS011;2044;48.692;9.020;2023-02-28T07:23:14;10.60;;;6.43;;
4057;SDS011;2044;48.692;9.020;2023-02-28T07:25:41;9.47;;;5.07;;
4057;SDS011;2044;48.692;9.020;2023-02-28T07:28:08;10.37;;;5.90;;
4057;SDS011;2044;48.692;9.020;2023-02-28T07:30:35;7.30;;;5.37;;
4057;SDS011;2044;48.692;9.020;2023-02-28T07:33:03;13.73;;;8.93;;
4057;SDS011;2044;48.692;9.020;2023-02-28T07:35:30;9.93;;;6.43;;
4057;SDS011;2044;48.692;9.020;2023-02-28T07:37:56;9.60;;;6.80;;
4057;SDS011;2044;48.692;9.020;2023-02-28T07:40:23;8.10;;;5.17;;
4057;SDS011;2044;48.692;9.020;2023-02-28T07:42:51;4.80;;;4.00;;
4057;SDS011;2044;48.692;9.020;2023-02-28T07:45:18;9.97;;;6.10;;
4057;SDS011;2044;48.692;9.020;2023-02-28T07:47:45;9.60;;;5.90;;
4057;SDS011;2044;48.692;9.020;2023-02-28T07:50:14;9.40;;;5.73;;
4057;SDS011;2044;48.692;9.020;2023-02-28T07:52:41;12.83;;;7.63;;
4057;SDS011;2044;48.692;9.020;2023-02-28T07:55:09;10.60;;;6.40;;
4057;SDS011;2044;48.692;9.020;2023-02-28T07:57:36;13.80;;;9.90;;
4057;SDS011;2044;48.692;9.020;2023-02-28T08:00:03;11.20;;;8.13;;
4057;SDS011;2044;48.692;9.020;2023-02-28T08:02:31;6.43;;;5.63;;
4057;SDS011;2044;48.692;9.020;2023-02-28T08:04:59;12.40;;;8.00;;
4057;SDS011;2044;48.692;9.020;2023-02-28T08:07:27;9.70;;;6.47;;
4057;SDS011;2044;48.692;9.020;2023-02-28T08:09:54;10.37;;;6.53;;
4057;SDS011;2044;48.692;9.020;2023-02-28T08:12:21;12.47;;;9.90;;
4057;SDS011;2044;48.692;9.020;2023-02-28T08:14:47;15.60;;;9.57;;
4057;SDS011;2044;48.692;9.020;2023-02-28T08:17:14;18.23;;;8.50;;
4057;SDS011;2044;48.692;9.020;2023-02-28T08:19:41;11.03;;;9.83;;
4057;SDS011;2044;48.692;9.020;2023-02-28T08:24:56;9.57;;;8.17;;
4057;SDS011;2044;48.692;9.020;2023-02-28T08:27:23;13.73;;;10.30;;
4057;SDS011;2044;48.692;9.020;2023-02-28T08:29:50;4.70;;;4.10;;
4057;SDS011;2044;48.692;9.020;2023-02-28T08:32:16;10.37;;;8.10;;
4057;SDS011;2044;48.692;9.020;2023-02-28T08:34:43;13.80;;;9.30;;
4057;SDS011;2044;48.692;9.020;2023-02-28T08:37:10;12.33;;;8.50;;
4057;SDS011;2044;48.692;9.020;2023-02-28T08:39:38;10.93;;;9.07;;
4057;SDS011;2044;48.692;9.020;2023-02-28T08:42:05;11.50;;;8.57;;
4057;SDS011;2044;48.692;9.020;2023-02-28T08:44:32;15.13;;;7.77;;
4057;SDS011;2044;48.692;9.020;2023-02-28T08:46:59;6.00;;;4.67;;
4057;SDS011;2044;48.692;9.020;2023-02-28T08:49:26;10.47;;;7.87;;
4057;SDS011;2044;48.692;9.020;2023-02-28T08:51:53;14.67;;;9.07;;
4057;SDS011;2044;48.692;9.020;2023-02-28T08:54:20;11.10;;;6.90;;
4057;SDS011;2044;48.692;9.020;2023-02-28T08:56:49;12.63;;;8.60;;
4057;SDS011;2044;48.692;9.020;2023-02-28T08:59:16;12.57;;;9.80;;
4057;SDS011;2044;48.692;9.020;2023-02-28T09:01:42;11.67;;;7.50;;
4057;SDS011;2044;48.692;9.020;2023-02-28T09:04:09;11.27;;;8.97;;
4057;SDS011;2044;48.692;9.020;2023-02-28T09:06:36;12.03;;;8.17;;
4057;SDS011;2044;48.692;9.020;2023-02-28T09:09:03;9.67;;;7.10;;
4057;SDS011;2044;48.692;9.020;2023-02-28T09:11:32;14.80;;;11.10;;
4057;SDS011;2044;48.692;9.020;2023-02-28T09:14:01;12.17;;;6.37;;
4057;SDS011;2044;48.692;9.020;2023-02-28T09:16:29;12.33;;;10.53;;
4057;SDS011;2044;48.692;9.020;2023-02-28T09:18:57;13.73;;;9.43;;
4057;SDS011;2044;48.692;9.020;2023-02-28T09:21:24;11.70;;;7.70;;
4057;SDS011;2044;48.692;9.020;2023-02-28T09:23:51;13.07;;;9.13;;
4057;SDS011;2044;48.692;9.020;2023-02-28T09:26:18;11.33;;;8.87;;
4057;SDS011;2044;48.692;9.020;2023-02-28T09:28:47;8.63;;;6.30;;
4057;SDS011;2044;48.692;9.020;2023-02-28T09:31:16;11.47;;;9.03;;
4057;SDS011;2044;48.692;9.020;2023-02-28T09:33:45;14.93;;;9.00;;
4057;SDS011;2044;48.692;9.020;2023-02-28T09:36:12;16.10;;;14.50;;
4057;SDS011;2044;48.692;9.020;2023-02-28T09:38:39;12.83;;;7.60;;
4057;SDS011;2044;48.692;9.020;2023-02-28T09:41:10;11.10;;;9.07;;
4057;SDS011;2044;48.692;9.020;2023-02-28T09:43:40;13.93;;;11.10;;
4057;SDS011;2044;48.692;9.020;2023-02-28T09:46:14;15.50;;;11.20;;
4057;SDS011;2044;48.692;9.020;2023-02-28T09:48:51;16.60;;;12.17;;
4057;SDS011;2044;48.692;9.020;2023-02-28T09:51:26;14.10;;;12.60;;
4057;SDS011;2044;48.692;9.020;2023-02-28T09:53:59;11.03;;;7.90;;
4057;SDS011;2044;48.692;9.020;2023-02-28T09:56:27;12.70;;;9.50;;
4057;SDS011;2044;48.692;9.020;2023-02-28T09:58:59;17.93;;;11.57;;
4057;SDS011;2044;48.692;9.020;2023-02-28T10:01:34;12.23;;;10.10;;
4057;SDS011;2044;48.692;9.020;2023-02-28T10:04:05;17.80;;;13.20;;
4057;SDS011;2044;48.692;9.020;2023-02-28T10:06:39;13.50;;;11.80;;
4057;SDS011;2044;48.692;9.020;2023-02-28T10:09:10;17.57;;;13.30;;
4057;SDS011;2044;48.692;9.020;2023-02-28T10:11:40;13.97;;;10.40;;
4057;SDS011;2044;48.692;9.020;2023-02-28T10:14:10;13.10;;;11.80;;
4057;SDS011;2044;48.692;9.020;2023-02-28T10:16:43;17.43;;;15.03;;
4057;SDS011;2044;48.692;9.020;2023-02-28T10:19:17;15.00;;;10.00;;
4057;SDS011;2044;48.692;9.020;2023-02-28T10:21:49;12.33;;;10.73;;
4057;SDS011;2044;48.692;9.020;2023-02-28T10:24:23;12.70;;;11.33;;
4057;SDS011;2044;48.692;9.020;2023-02-28T10:26:56;15.17;;;10.90;;
4057;SDS011;2044;48.692;9.020;2023-02-28T10:29:26;16.40;;;14.90;;
4057;SDS011;2044;48.692;9.020;2023-02-28T10:31:56;15.47;;;13.87;;
4057;SDS011;2044;48.692;9.020;2023-02-28T10:34:22;12.30;;;10.23;;
4057;SDS011;2044;48.692;9.020;2023-02-28T10:36:50;15.40;;;11.77;;
4057;SDS011;2044;48.692;9.020;2023-02-28T10:39:33;14.23;;;11.73;;
4057;SDS011;2044;48.692;9.020;2023-02-28T10:42:02;17.70;;;14.03;;
4057;SDS011;2044;48.692;9.020;2023-02-28T10:44:29;13.80;;;12.00;;
4057;SDS011;2044;48.692;9.020;2023-02-28T10:46:57;12.93;;;11.60;;
4057;SDS011;2044;48.692;9.020;2023-02-28T10:49:25;17.10;;;15.40;;
4057;SDS011;2044;48.692;9.020;2023-02-28T10:51:54;17.00;;;13.97;;
4057;SDS011;2044;48.692;9.020;2023-02-28T10:54:23;13.83;;;12.40;;
4057;SDS011;2044;48.692;9.020;2023-02-28T10:57:06;17.73;;;14.60;;
4057;SDS011;2044;48.692;9.020;2023-02-28T10:59:42;16.50;;;14.87;;
4057;SDS011;2044;48.692;9.020;2023-02-28T11:04:56;14.73;;;12.57;;
4057;SDS011;2044;48.692;9.020;2023-02-28T11:07:23;20.07;;;18.37;;
4057;SDS011;2044;48.692;9.020;2023-02-28T11:09:53;19.73;;;17.90;;
4057;SDS011;2044;48.692;9.020;2023-02-28T11:12:22;14.03;;;12.57;;
4057;SDS011;2044;48.692;9.020;2023-02-28T11:14:52;18.83;;;17.20;;
4057;SDS011;2044;48.692;9.020;2023-02-28T11:17:23;19.53;;;17.20;;
4057;SDS011;2044;48.692;9.020;2023-02-28T11:19:53;17.90;;;16.10;;
4057;SDS011;2044;48.692;9.020;2023-02-28T11:22:23;17.73;;;15.83;;
4057;SDS011;2044;48.692;9.020;2023-02-28T11:24:53;14.50;;;13.13;;
4057;SDS011;2044;48.692;9.020;2023-02-28T11:27:26;18.43;;;16.73;;
4057;SDS011;2044;48.692;9.020;2023-02-28T11:32:58;18.90;;;16.90;;
4057;SDS011;2044;48.692;9.020;2023-02-28T11:35:28;17.03;;;15.23;;
4057;SDS011;2044;48.692;9.020;2023-02-28T11:37:59;18.30;;;16.50;;
4057;SDS011;2044;48.692;9.020;2023-02-28T11:40:30;16.23;;;14.73;;
4057;SDS011;2044;48.692;9.020;2023-02-28T11:43:05;14.10;;;12.90;;
4057;SDS011;2044;48.692;9.020;2023-02-28T11:45:41;18.83;;;17.13;;
4057;SDS011;2044;48.692;9.020;2023-02-28T11:48:18;16.23;;;14.60;;
4057;SDS011;2044;48.692;9.020;2023-02-28T11:50:54;19.67;;;17.50;;
4057;SDS011;2044;48.692;9.020;2023-02-28T11:53:50;16.70;;;14.93;;
4057;SDS011;2044;48.692;9.020;2023-02-28T11:56:25;18.17;;;16.50;;
4057;SDS011;2044;48.692;9.020;2023-02-28T11:59:04;14.83;;;13.40;;
4057;SDS011;2044;48.692;9.020;2023-02-28T12:01:51;13.40;;;12.00;;
4057;SDS011;2044;48.692;9.020;2023-02-28T12:04:47;16.07;;;13.40;;
4057;SDS011;2044;48.692;9.020;2023-02-28T12:07:23;15.87;;;14.17;;
4057;SDS011;2044;48.692;9.020;2023-02-28T12:09:58;19.00;;;14.60;;
4057;SDS011;2044;48.692;9.020;2023-02-28T12:12:37;15.70;;;14.00;;
4057;SDS011;2044;48.692;9.020;2023-02-28T12:15:22;15.07;;;13.53;;
4057;SDS011;2044;48.692;9.020;2023-02-28T12:18:02;14.30;;;13.10;;
4057;SDS011;2044;48.692;9.020;2023-02-28T12:20:41;14.90;;;12.60;;
4057;SDS011;2044;48.692;9.020;2023-02-28T12:23:21;15.70;;;11.13;;
4057;SDS011;2044;48.692;9.020;2023-02-28T12:26:07;12.93;;;11.70;;
4057;SDS011;2044;48.692;9.020;2023-02-28T12:28:43;21.43;;;12.80;;
4057;SDS011;2044;48.692;9.020;2023-02-28T12:31:16;16.13;;;14.30;;
4057;SDS011;2044;48.692;9.020;2023-02-28T12:33:47;17.77;;;16.13;;
4057;SDS011;2044;48.692;9.020;2023-02-28T12:36:18;18.30;;;16.30;;
4057;SDS011;2044;48.692;9.020;2023-02-28T12:38:53;15.83;;;14.23;;
4057;SDS011;2044;48.692;9.020;2023-02-28T12:41:24;17.10;;;14.63;;
4057;SDS011;2044;48.692;9.020;2023-02-28T12:43:58;15.70;;;13.77;;
4057;SDS011;2044;48.692;9.020;2023-02-28T12:46:29;16.77;;;15.20;;
4057;SDS011;2044;48.692;9.020;2023-02-28T12:49:00;20.47;;;18.47;;
4057;SDS011;2044;48.692;9.020;2023-02-28T12:51:31;15.37;;;13.80;;
4057;SDS011;2044;48.692;9.020;2023-02-28T12:54:07;15.00;;;13.47;;
4057;SDS011;2044;48.692;9.020;2023-02-28T12:56:43;14.13;;;12.87;;
4057;SDS011;2044;48.692;9.020;2023-02-28T12:59:16;15.50;;;13.90;;
4057;SDS011;2044;48.692;9.020;2023-02-28T13:01:57;19.37;;;17.47;;
4057;SDS011;2044;48.692;9.020;2023-02-28T13:04:56;14.70;;;13.17;;
4057;SDS011;2044;48.692;9.020;2023-02-28T13:07:49;18.47;;;16.60;;
4057;SDS011;2044;48.692;9.020;2023-02-28T13:10:39;16.40;;;14.17;;
4057;SDS011;2044;48.692;9.020;2023-02-28T13:13:11;16.37;;;14.77;;
4057;SDS011;2044;48.692;9.020;2023-02-28T13:15:41;15.50;;;14.00;;
4057;SDS011;2044;48.692;9.020;2023-02-28T13:18:47;20.77;;;14.83;;
4057;SDS011;2044;48.692;9.020;2023-02-28T13:21:24;19.67;;;17.77;;
4057;SDS011;2044;48.692;9.020;2023-02-28T13:24:00;18.20;;;16.63;;
4057;SDS011;2044;48.692;9.020;2023-02-28T13:29:40;16.00;;;14.43;;
4057;SDS011;2044;48.692;9.020;2023-02-28T13:32:19;15.10;;;13.70;;
4057;SDS011;2044;48.692;9.020;2023-02-28T13:44:13;16.97;;;15.30;;
4057;SDS011;2044;48.692;9.020;2023-02-28T13:49:46;17.80;;;16.10;;
4057;SDS011;2044;48.692;9.020;2023-02-28T13:52:15;20.07;;;18.07;;
4057;SDS011;2044;48.692;9.020;2023-02-28T13:54:50;13.87;;;12.60;;
4057;SDS011;2044;48.692;9.020;2023-02-28T13:57:34;17.93;;;16.33;;
4057;SDS011;2044;48.692;9.020;2023-02-28T14:00:17;19.43;;;17.63;;
4057;SDS011;2044;48.692;9.020;2023-02-28T14:03:04;18.63;;;16.83;;
4057;SDS011;2044;48.692;9.020;2023-02-28T14:08:50;17.70;;;15.87;;
4057;SDS011;2044;48.692;9.020;2023-02-28T14:11:25;20.00;;;18.00;;
4057;SDS011;2044;48.692;9.020;2023-02-28T14:13:54;17.40;;;15.50;;
4057;SDS011;2044;48.692;9.020;2023-02-28T14:16:24;18.23;;;16.50;;
4057;SDS011;2044;48.692;9.020;2023-02-28T14:18:56;16.60;;;15.00;;
4057;SDS011;2044;48.692;9.020;2023-02-28T14:21:26;16.77;;;15.20;;
4057;SDS011;2044;48.692;9.020;2023-02-28T14:26:53;20.10;;;15.10;;
4057;SDS011;2044;48.692;9.020;2023-02-28T14:29:36;20.63;;;18.93;;
4057;SDS011;2044;48.692;9.020;2023-02-28T14:32:13;18.30;;;16.70;;
4057;SDS011;2044;48.692;9.020;2023-02-28T14:34:50;16.40;;;15.00;;
4057;SDS011;2044;48.692;9.020;2023-02-28T14:37:23;15.60;;;14.10;;
4057;SDS011;2044;48.692;9.020;2023-02-28T14:39:53;15.13;;;13.63;;
4057;SDS011;2044;48.692;9.020;2023-02-28T14:42:27;14.73;;;13.33;;
4057;SDS011;2044;48.692;9.020;2023-02-28T14:44:55;18.23;;;16.43;;
4057;SDS011;2044;48.692;9.020;2023-02-28T14:47:23;19.03;;;17.20;;
4057;SDS011;2044;48.692;9.020;2023-02-28T14:49:55;19.47;;;17.63;;
4057;SDS011;2044;48.692;9.020;2023-02-28T14:52:23;19.30;;;17.40;;
4057;SDS011;2044;48.692;9.020;2023-02-28T14:54:52;19.47;;;16.77;;
4057;SDS011;2044;48.692;9.020;2023-02-28T14:57:21;20.40;;;18.50;;
4057;SDS011;2044;48.692;9.020;2023-02-28T14:59:56;16.87;;;15.20;;
4057;SDS011;2044;48.692;9.020;2023-02-28T15:02:25;18.03;;;16.13;;
4057;SDS011;2044;48.692;9.020;2023-02-28T15:05:29;20.10;;;18.23;;
4057;SDS011;2044;48.692;9.020;2023-02-28T15:08:01;18.83;;;16.93;;
4057;SDS011;2044;48.692;9.020;2023-02-28T15:10:31;17.57;;;15.90;;
4057;SDS011;2044;48.692;9.020;2023-02-28T15:13:00;19.17;;;17.40;;
4057;SDS011;2044;48.692;9.020;2023-02-28T15:15:39;19.30;;;17.53;;
4057;SDS011;2044;48.692;9.020;2023-02-28T15:18:08;19.23;;;17.60;;
4057;SDS011;2044;48.692;9.020;2023-02-28T15:20:43;19.27;;;17.57;;
4057;SDS011;2044;48.692;9.020;2023-02-28T15:23:11;17.00;;;15.30;;
4057;SDS011;2044;48.692;9.020;2023-02-28T15:25:38;18.97;;;17.17;;
4057;SDS011;2044;48.692;9.020;2023-02-28T15:28:10;17.73;;;16.00;;
4057;SDS011;2044;48.692;9.020;2023-02-28T15:30:53;17.43;;;15.60;;
4057;SDS011;2044;48.692;9.020;2023-02-28T15:33:23;17.00;;;15.40;;
4057;SDS011;2044;48.692;9.020;2023-02-28T15:36:02;19.47;;;17.70;;
4057;SDS011;2044;48.692;9.020;2023-02-28T15:38:33;19.23;;;17.40;;
4057;SDS011;2044;48.692;9.020;2023-02-28T15:41:01;20.00;;;18.00;;
4057;SDS011;2044;48.692;9.020;2023-02-28T15:43:33;20.20;;;18.47;;
4057;SDS011;2044;48.692;9.020;2023-02-28T15:46:02;18.27;;;16.47;;
4057;SDS011;2044;48.692;9.020;2023-02-28T15:48:31;17.60;;;15.90;;
4057;SDS011;2044;48.692;9.020;2023-02-28T15:51:02;19.40;;;17.70;;
4057;SDS011;2044;48.692;9.020;2023-02-28T15:53:36;20.20;;;18.20;;
4057;SDS011;2044;48.692;9.020;2023-02-28T15:56:21;19.47;;;17.60;;
4057;SDS011;2044;48.692;9.020;2023-02-28T15:58:50;19.43;;;17.63;;
4057;SDS011;2044;48.692;9.020;2023-02-28T16:01:23;16.70;;;15.10;;